M I D A S
Marine Information and Data Acquisition System
Tripno 1682 of the Zeeleeuw from 2009-04-27 14:56:34 to 2009-04-28 03:48:09
Back to CruiseResearch ActivitiesStationsMapUnderway DataData graphs

EquipmentUnitsComment
TimeDGPSUTC
LatitudeDGPSDM.mWGS84
LongitudeDGPSDM.mWGS84
HeadingGyrodeg 
SOGDGPSknotsSpeed over ground
COGDGPSdegCourse over ground
DepthEcho soundermeters200 kHz
Missing or incorrect values are displayed as -999
Navigation data collected by the RV Zeeleeuw from 2009-04-27 09:56:35 to 2009-04-28 08:48:07
                                                                                    Next 1000 lines
Time Latitude Longitude Heading SOG COG Depth
2009-04-27 09:56:50 51°10.51 2°39.398 249.8 12.5 249 -999
2009-04-27 09:57:00 51°10.497 2°39.347 249.8 12.5 249 -999
2009-04-27 09:57:10 51°10.485 2°39.295 249.8 12.5 249 -999
2009-04-27 09:57:20 51°10.473 2°39.243 249.8 12.5 249 -999
2009-04-27 09:57:30 51°10.461 2°39.192 249.8 12.5 249 -999
2009-04-27 09:57:40 51°10.449 2°39.14 249.8 12.5 249 -999
2009-04-27 09:57:50 51°10.436 2°39.089 249.8 12.5 249 -999
2009-04-27 09:58:00 51°10.423 2°39.037 249 12.5 249 -999
2009-04-27 09:58:10 51°10.411 2°38.986 249 12.5 249 -999
2009-04-27 09:58:20 51°10.398 2°38.934 249 12.5 249 -999
2009-04-27 09:58:30 51°10.386 2°38.882 249 12.5 249 -999
2009-04-27 09:58:40 51°10.373 2°38.831 249 12.5 249 -999
2009-04-27 09:58:50 51°10.361 2°38.779 249 12.5 249 -999
2009-04-27 09:59:00 51°10.349 2°38.727 249.8 12.59 249 -999
2009-04-27 09:59:10 51°10.336 2°38.676 249.8 12.59 249 -999
2009-04-27 09:59:20 51°10.323 2°38.624 249.8 12.59 249 -999
2009-04-27 09:59:30 51°10.311 2°38.572 249.8 12.59 249 -999
2009-04-27 09:59:40 51°10.299 2°38.52 249.8 12.59 249 -999
2009-04-27 09:59:50 51°10.286 2°38.468 249.8 12.59 249 -999
2009-04-27 10:00:00 51°10.274 2°38.417 249.1 12.5 250 -999
2009-04-27 10:00:10 51°10.264 2°38.364 249.1 12.5 250 -999
2009-04-27 10:00:20 51°10.255 2°38.311 249.1 12.5 250 -999
2009-04-27 10:00:30 51°10.246 2°38.257 249.1 12.5 250 -999
2009-04-27 10:00:40 51°10.238 2°38.204 249.1 12.5 250 -999
2009-04-27 10:00:50 51°10.23 2°38.149 249.1 12.5 250 -999
2009-04-27 10:01:00 51°10.222 2°38.096 259.1 12.5 258 -999
2009-04-27 10:01:10 51°10.215 2°38.042 259.1 12.5 258 -999
2009-04-27 10:01:20 51°10.208 2°37.988 259.1 12.5 258 -999
2009-04-27 10:01:30 51°10.202 2°37.934 259.1 12.5 258 -999
2009-04-27 10:01:40 51°10.194 2°37.88 259.1 12.5 258 -999
2009-04-27 10:01:50 51°10.188 2°37.826 259.1 12.5 258 -999
2009-04-27 10:02:00 51°10.18 2°37.773 259.6 12.4 258 -999
2009-04-27 10:02:10 51°10.173 2°37.719 259.6 12.4 258 -999
2009-04-27 10:02:20 51°10.165 2°37.665 259.6 12.4 258 -999
2009-04-27 10:02:30 51°10.158 2°37.612 259.6 12.4 258 -999
2009-04-27 10:02:40 51°10.151 2°37.558 259.6 12.4 258 -999
2009-04-27 10:02:50 51°10.145 2°37.504 259.6 12.4 258 -999
2009-04-27 10:03:00 51°10.14 2°37.45 261.5 12.4 261 -999
2009-04-27 10:03:10 51°10.134 2°37.396 261.5 12.4 261 -999
2009-04-27 10:03:20 51°10.129 2°37.342 261.5 12.4 261 -999
2009-04-27 10:03:30 51°10.123 2°37.287 261.5 12.4 261 -999
2009-04-27 10:03:40 51°10.117 2°37.234 261.5 12.4 261 -999
2009-04-27 10:03:50 51°10.112 2°37.18 261.5 12.4 261 -999
2009-04-27 10:04:00 51°10.106 2°37.125 262.5 12.4 261 -999
2009-04-27 10:04:10 51°10.101 2°37.071 262.5 12.4 261 -999
2009-04-27 10:04:20 51°10.095 2°37.017 262.5 12.4 261 -999
2009-04-27 10:04:30 51°10.09 2°36.963 262.5 12.4 261 -999
2009-04-27 10:04:40 51°10.085 2°36.909 262.5 12.4 261 -999
2009-04-27 10:04:50 51°10.08 2°36.855 262.5 12.4 261 -999
2009-04-27 10:05:00 51°10.075 2°36.8 263 12.5 263 -999
2009-04-27 10:05:10 51°10.072 2°36.746 263 12.5 263 -999
2009-04-27 10:05:20 51°10.068 2°36.691 263 12.5 263 -999
2009-04-27 10:05:30 51°10.065 2°36.637 263 12.5 263 -999
2009-04-27 10:05:40 51°10.061 2°36.582 263 12.5 263 -999
2009-04-27 10:05:50 51°10.058 2°36.528 263 12.5 263 -999
2009-04-27 10:06:00 51°10.055 2°36.474 266.3 12.3 265 -999
2009-04-27 10:06:10 51°10.055 2°36.414 266.3 12.3 265 -999
2009-04-27 10:06:20 51°10.057 2°36.36 266.3 12.3 265 -999
2009-04-27 10:06:30 51°10.061 2°36.306 266.3 12.3 265 -999
2009-04-27 10:06:40 51°10.069 2°36.253 266.3 12.3 265 -999
2009-04-27 10:06:50 51°10.079 2°36.201 266.3 12.3 265 -999
2009-04-27 10:07:00 51°10.091 2°36.151 291.1 12.3 290 -999
2009-04-27 10:07:10 51°10.103 2°36.105 291.1 12.3 290 -999
2009-04-27 10:07:20 51°10.117 2°36.057 291.1 12.3 290 -999
2009-04-27 10:07:30 51°10.135 2°36.012 291.1 12.3 290 -999
2009-04-27 10:07:40 51°10.154 2°35.971 291.1 12.3 290 -999
2009-04-27 10:07:50 51°10.177 2°35.933 291.1 12.3 290 -999
2009-04-27 10:08:00 51°10.201 2°35.901 320.6 11.5 321 -999
2009-04-27 10:08:10 51°10.227 2°35.874 320.6 11.5 321 -999
2009-04-27 10:08:20 51°10.256 2°35.856 320.6 11.5 321 -999
2009-04-27 10:08:30 51°10.285 2°35.841 320.6 11.5 321 -999
2009-04-27 10:08:40 51°10.315 2°35.834 320.6 11.5 321 -999
2009-04-27 10:08:50 51°10.345 2°35.833 320.6 11.5 321 -999
2009-04-27 10:09:00 51°10.375 2°35.836 3.6 10.69 4 -999
2009-04-27 10:09:10 51°10.403 2°35.847 3.6 10.69 4 -999
2009-04-27 10:09:20 51°10.431 2°35.864 3.6 10.69 4 -999
2009-04-27 10:09:30 51°10.458 2°35.885 3.6 10.69 4 -999
2009-04-27 10:09:40 51°10.484 2°35.906 3.6 10.69 4 -999
2009-04-27 10:09:50 51°10.51 2°35.929 3.6 10.69 4 -999
2009-04-27 10:10:00 51°10.536 2°35.953 32 10.8 31 -999
2009-04-27 10:10:10 51°10.562 2°35.978 32 10.8 31 -999
2009-04-27 10:10:20 51°10.588 2°36.003 32 10.8 31 -999
2009-04-27 10:10:30 51°10.613 2°36.029 32 10.8 31 -999
2009-04-27 10:10:40 51°10.639 2°36.056 32 10.8 31 -999
2009-04-27 10:10:50 51°10.664 2°36.083 32 10.8 31 -999
2009-04-27 10:11:00 51°10.689 2°36.109 35.3 10.9 33 -999
2009-04-27 10:11:10 51°10.718 2°36.136 35.3 10.9 33 -999
2009-04-27 10:11:20 51°10.744 2°36.159 35.3 10.9 33 -999
2009-04-27 10:11:30 51°10.77 2°36.181 35.3 10.9 33 -999
2009-04-27 10:11:40 51°10.797 2°36.202 35.3 10.9 33 -999
2009-04-27 10:11:50 51°10.824 2°36.223 35.3 10.9 33 -999
2009-04-27 10:12:00 51°10.851 2°36.244 28.8 10.8 24 -999
2009-04-27 10:12:10 51°10.875 2°36.264 28.8 10.8 24 -999
2009-04-27 10:12:20 51°10.902 2°36.285 28.8 10.8 24 -999
2009-04-27 10:12:30 51°10.929 2°36.306 28.8 10.8 24 -999
2009-04-27 10:12:40 51°10.956 2°36.327 28.8 10.8 24 -999
2009-04-27 10:12:50 51°10.983 2°36.348 28.8 10.8 24 -999
2009-04-27 10:13:00 51°11.01 2°36.369 29 10.9 27 -999
2009-04-27 10:13:10 51°11.037 2°36.391 29 10.9 27 -999
2009-04-27 10:13:20 51°11.065 2°36.412 29 10.9 27 -999
2009-04-27 10:13:30 51°11.092 2°36.433 29 10.9 27 -999
2009-04-27 10:13:40 51°11.119 2°36.454 29 10.9 27 -999
2009-04-27 10:13:50 51°11.146 2°36.476 29 10.9 27 -999
2009-04-27 10:14:00 51°11.173 2°36.497 29.1 10.9 26 -999
2009-04-27 10:14:10 51°11.2 2°36.517 29.1 10.9 26 -999
2009-04-27 10:14:20 51°11.228 2°36.539 29.1 10.9 26 -999
2009-04-27 10:14:30 51°11.255 2°36.56 29.1 10.9 26 -999
2009-04-27 10:14:40 51°11.282 2°36.581 29.1 10.9 26 -999
2009-04-27 10:14:50 51°11.309 2°36.602 29.1 10.9 26 -999
2009-04-27 10:15:00 51°11.336 2°36.624 29 10.9 27 -999
2009-04-27 10:15:10 51°11.364 2°36.644 29 10.9 27 -999
2009-04-27 10:15:20 51°11.394 2°36.667 29 10.9 27 -999
2009-04-27 10:15:30 51°11.418 2°36.685 29 10.9 27 -999
2009-04-27 10:15:40 51°11.445 2°36.706 29 10.9 27 -999
2009-04-27 10:15:50 51°11.472 2°36.728 29 10.9 27 -999
2009-04-27 10:16:00 51°11.499 2°36.75 29.8 10.9 27 -999
2009-04-27 10:16:10 51°11.527 2°36.77 29.8 10.9 27 -999
2009-04-27 10:16:20 51°11.554 2°36.791 29.8 10.9 27 -999
2009-04-27 10:16:30 51°11.581 2°36.813 29.8 10.9 27 -999
2009-04-27 10:16:40 51°11.608 2°36.834 29.8 10.9 27 -999
2009-04-27 10:16:50 51°11.635 2°36.855 29.8 10.9 27 -999
2009-04-27 10:17:00 51°11.662 2°36.877 28.6 10.69 29 -999
2009-04-27 10:17:10 51°11.688 2°36.898 28.6 10.69 29 -999
2009-04-27 10:17:20 51°11.716 2°36.917 28.6 10.69 29 -999
2009-04-27 10:17:30 51°11.744 2°36.935 28.6 10.69 29 -999
2009-04-27 10:17:40 51°11.772 2°36.952 28.6 10.69 29 -999
2009-04-27 10:17:50 51°11.8 2°36.968 28.6 10.69 29 -999
2009-04-27 10:18:00 51°11.829 2°36.983 22.8 10.8 20 -999
2009-04-27 10:18:10 51°11.857 2°36.998 22.8 10.8 20 -999
2009-04-27 10:18:20 51°11.886 2°37.012 22.8 10.8 20 -999
2009-04-27 10:18:30 51°11.915 2°37.024 22.8 10.8 20 -999
2009-04-27 10:18:40 51°11.945 2°37.036 22.8 10.8 20 -999
2009-04-27 10:18:50 51°11.974 2°37.049 22.8 10.8 20 -999
2009-04-27 10:19:00 51°12.003 2°37.062 19.1 11 16 -999
2009-04-27 10:19:10 51°12.032 2°37.076 19.1 11 16 -999
2009-04-27 10:19:20 51°12.061 2°37.09 19.1 11 16 -999
2009-04-27 10:19:30 51°12.09 2°37.104 19.1 11 16 -999
2009-04-27 10:19:40 51°12.12 2°37.117 19.1 11 16 -999
2009-04-27 10:19:50 51°12.149 2°37.131 19.1 11 16 -999
2009-04-27 10:20:00 51°12.178 2°37.145 20.8 10.9 16 -999
2009-04-27 10:20:10 51°12.207 2°37.159 20.8 10.9 16 -999
2009-04-27 10:20:20 51°12.236 2°37.173 20.8 10.9 16 -999
2009-04-27 10:20:30 51°12.265 2°37.187 20.8 10.9 16 -999
2009-04-27 10:20:40 51°12.294 2°37.2 20.8 10.9 16 -999
2009-04-27 10:20:50 51°12.324 2°37.213 20.8 10.9 16 -999
2009-04-27 10:21:00 51°12.352 2°37.228 20.3 10.9 16 -999
2009-04-27 10:21:10 51°12.381 2°37.241 20.3 10.9 16 -999
2009-04-27 10:21:20 51°12.41 2°37.254 20.3 10.9 16 -999
2009-04-27 10:21:30 51°12.439 2°37.269 20.3 10.9 16 -999
2009-04-27 10:21:40 51°12.468 2°37.283 20.3 10.9 16 -999
2009-04-27 10:21:50 51°12.497 2°37.296 20.3 10.9 16 -999
2009-04-27 10:22:00 51°12.526 2°37.31 20.1 10.9 16 -999
2009-04-27 10:22:10 51°12.555 2°37.324 20.1 10.9 16 -999
2009-04-27 10:22:20 51°12.585 2°37.337 20.1 10.9 16 -999
2009-04-27 10:22:30 51°12.614 2°37.35 20.1 10.9 16 -999
2009-04-27 10:22:40 51°12.643 2°37.359 20.1 10.9 16 -999
2009-04-27 10:22:50 51°12.673 2°37.365 20.1 10.9 16 -999
2009-04-27 10:23:00 51°12.703 2°37.366 7.2 10.9   -999
2009-04-27 10:23:10 51°12.736 2°37.363 7.2 10.9   -999
2009-04-27 10:23:20 51°12.767 2°37.358 7.2 10.9   -999
2009-04-27 10:23:30 51°12.797 2°37.352 7.2 10.9   -999
2009-04-27 10:23:40 51°12.828 2°37.345 7.2 10.9   -999
2009-04-27 10:23:50 51°12.858 2°37.338 7.2 10.9   -999
2009-04-27 10:24:00 51°12.889 2°37.331 356.6 11.19 351 -999
2009-04-27 10:24:10 51°12.917 2°37.324 356.6 11.19 351 -999
2009-04-27 10:24:20 51°12.948 2°37.317 356.6 11.19 351 -999
2009-04-27 10:24:30 51°12.979 2°37.311 356.6 11.19 351 -999
2009-04-27 10:24:40 51°13.01 2°37.304 356.6 11.19 351 -999
2009-04-27 10:24:50 51°13.041 2°37.298 356.6 11.19 351 -999
2009-04-27 10:25:00 51°13.072 2°37.293 357.6 11.3 354 -999
2009-04-27 10:25:10 51°13.103 2°37.287 357.6 11.3 354 -999
2009-04-27 10:25:20 51°13.134 2°37.283 357.6 11.3 354 -999
2009-04-27 10:25:30 51°13.165 2°37.279 357.6 11.3 354 -999
2009-04-27 10:25:40 51°13.196 2°37.274 357.6 11.3 354 -999
2009-04-27 10:25:50 51°13.227 2°37.269 357.6 11.3 354 -999
2009-04-27 10:26:00 51°13.258 2°37.265 358.1 11.19 354 -999
2009-04-27 10:26:10 51°13.289 2°37.26 358.1 11.19 354 -999
2009-04-27 10:26:20 51°13.32 2°37.255 358.1 11.19 354 -999
2009-04-27 10:26:30 51°13.351 2°37.251 358.1 11.19 354 -999
2009-04-27 10:26:40 51°13.382 2°37.247 358.1 11.19 354 -999
2009-04-27 10:26:50 51°13.413 2°37.242 358.1 11.19 354 -999
2009-04-27 10:27:00 51°13.444 2°37.238 358.6 11.19 354 -999
2009-04-27 10:27:10 51°13.475 2°37.233 358.6 11.19 354 -999
2009-04-27 10:27:20 51°13.505 2°37.229 358.6 11.19 354 -999
2009-04-27 10:27:30 51°13.536 2°37.224 358.6 11.19 354 -999
2009-04-27 10:27:40 51°13.566 2°37.216 358.6 11.19 354 -999
2009-04-27 10:27:50 51°13.597 2°37.205 358.6 11.19 354 -999
2009-04-27 10:28:00 51°13.628 2°37.19 350 11.59 342 -999
2009-04-27 10:28:10 51°13.658 2°37.172 350 11.59 342 -999
2009-04-27 10:28:20 51°13.688 2°37.152 350 11.59 342 -999
2009-04-27 10:28:30 51°13.716 2°37.128 350 11.59 342 -999
2009-04-27 10:28:40 51°13.744 2°37.103 350 11.59 342 -999
2009-04-27 10:28:50 51°13.772 2°37.074 350 11.59 342 -999
2009-04-27 10:29:00 51°13.799 2°37.046 332.1 11.8 326 -999
2009-04-27 10:29:10 51°13.825 2°37.015 332.1 11.8 326 -999
2009-04-27 10:29:20 51°13.851 2°36.984 332.1 11.8 326 -999
2009-04-27 10:29:30 51°13.878 2°36.953 332.1 11.8 326 -999
2009-04-27 10:29:40 51°13.905 2°36.924 332.1 11.8 326 -999
2009-04-27 10:29:50 51°13.932 2°36.895 332.1 11.8 326 -999
2009-04-27 10:30:00 51°13.958 2°36.866 330.8 11.69 325 -999
2009-04-27 10:30:10 51°13.985 2°36.836 330.8 11.69 325 -999
2009-04-27 10:30:20 51°14.012 2°36.807 330.8 11.69 325 -999
2009-04-27 10:30:30 51°14.037 2°36.777 330.8 11.69 325 -999
2009-04-27 10:30:40 51°14.064 2°36.747 330.8 11.69 325 -999
2009-04-27 10:30:50 51°14.091 2°36.718 330.8 11.69 325 -999
2009-04-27 10:31:00 51°14.118 2°36.689 329.8 11.5 328 -999
2009-04-27 10:31:10 51°14.145 2°36.661 329.8 11.5 328 -999
2009-04-27 10:31:20 51°14.172 2°36.634 329.8 11.5 328 -999
2009-04-27 10:31:30 51°14.199 2°36.606 329.8 11.5 328 -999
2009-04-27 10:31:40 51°14.226 2°36.579 329.8 11.5 328 -999
2009-04-27 10:31:50 51°14.253 2°36.553 329.8 11.5 328 -999
2009-04-27 10:32:00 51°14.28 2°36.525 332.1 11.5 327 -999
2009-04-27 10:32:10 51°14.31 2°36.495 332.1 11.5 327 -999
2009-04-27 10:32:20 51°14.335 2°36.471 332.1 11.5 327 -999
2009-04-27 10:32:30 51°14.362 2°36.445 332.1 11.5 327 -999
2009-04-27 10:32:40 51°14.39 2°36.419 332.1 11.5 327 -999
2009-04-27 10:32:50 51°14.417 2°36.392 332.1 11.5 327 -999
2009-04-27 10:33:00 51°14.445 2°36.367 334.1 11.59 329 -999
2009-04-27 10:33:10 51°14.473 2°36.34 334.1 11.59 329 -999
2009-04-27 10:33:20 51°14.501 2°36.315 334.1 11.59 329 -999
2009-04-27 10:33:30 51°14.529 2°36.288 334.1 11.59 329 -999
2009-04-27 10:33:40 51°14.557 2°36.262 334.1 11.59 329 -999
2009-04-27 10:33:50 51°14.585 2°36.237 334.1 11.59 329 -999
2009-04-27 10:34:00 51°14.614 2°36.216 335.8 11.59 334 -999
2009-04-27 10:34:10 51°14.644 2°36.196 335.8 11.59 334 -999
2009-04-27 10:34:20 51°14.674 2°36.179 335.8 11.59 334 -999
2009-04-27 10:34:30 51°14.705 2°36.163 335.8 11.59 334 -999
2009-04-27 10:34:40 51°14.736 2°36.152 335.8 11.59 334 -999
2009-04-27 10:34:50 51°14.767 2°36.143 335.8 11.59 334 -999
2009-04-27 10:35:00 51°14.799 2°36.139 357.8 11.5 355 -999
2009-04-27 10:35:10 51°14.831 2°36.141 357.8 11.5 355 -999
2009-04-27 10:35:20 51°14.862 2°36.15 357.8 11.5 355 -999
2009-04-27 10:35:30 51°14.892 2°36.161 357.8 11.5 355 -999
2009-04-27 10:35:40 51°14.922 2°36.174 357.8 11.5 355 -999
2009-04-27 10:35:50 51°14.953 2°36.187 357.8 11.5 355 -999
2009-04-27 10:36:00 51°14.983 2°36.201 20.8 11.3 19 -999
2009-04-27 10:36:10 51°15.012 2°36.218 20.8 11.3 19 -999
2009-04-27 10:36:20 51°15.042 2°36.233 20.8 11.3 19 -999
2009-04-27 10:36:30 51°15.072 2°36.249 20.8 11.3 19 -999
2009-04-27 10:36:40 51°15.102 2°36.264 20.8 11.3 19 -999
2009-04-27 10:36:50 51°15.132 2°36.279 20.8 11.3 19 -999
2009-04-27 10:37:00 51°15.163 2°36.295 20.6 11.59 16 -999
2009-04-27 10:37:10 51°15.193 2°36.309 20.6 11.59 16 -999
2009-04-27 10:37:20 51°15.226 2°36.324 20.6 11.59 16 -999
2009-04-27 10:37:30 51°15.253 2°36.337 20.6 11.59 16 -999
2009-04-27 10:37:40 51°15.283 2°36.352 20.6 11.59 16 -999
2009-04-27 10:37:50 51°15.313 2°36.366 20.6 11.59 16 -999
2009-04-27 10:38:00 51°15.343 2°36.381 21.1 11.4 16 -999
2009-04-27 10:38:10 51°15.374 2°36.396 21.1 11.4 16 -999
2009-04-27 10:38:20 51°15.404 2°36.411 21.1 11.4 16 -999
2009-04-27 10:38:30 51°15.435 2°36.425 21.1 11.4 16 -999
2009-04-27 10:38:40 51°15.465 2°36.438 21.1 11.4 16 -999
2009-04-27 10:38:50 51°15.496 2°36.452 21.1 11.4 16 -999
2009-04-27 10:39:00 51°15.526 2°36.466 19.1 11.5 14 -999
2009-04-27 10:39:10 51°15.557 2°36.479 19.1 11.5 14 -999
2009-04-27 10:39:20 51°15.588 2°36.493 19.1 11.5 14 -999
2009-04-27 10:39:30 51°15.618 2°36.507 19.1 11.5 14 -999
2009-04-27 10:39:40 51°15.649 2°36.519 19.1 11.5 14 -999
2009-04-27 10:39:50 51°15.681 2°36.53 19.1 11.5 14 -999
2009-04-27 10:40:00 51°15.711 2°36.543 19 11.4 14 -999
2009-04-27 10:40:10 51°15.741 2°36.556 19 11.4 14 -999
2009-04-27 10:40:20 51°15.772 2°36.569 19 11.4 14 -999
2009-04-27 10:40:30 51°15.803 2°36.581 19 11.4 14 -999
2009-04-27 10:40:40 51°15.834 2°36.593 19 11.4 14 -999
2009-04-27 10:40:50 51°15.865 2°36.604 19 11.4 14 -999
2009-04-27 10:41:00 51°15.895 2°36.615 17.5 11.4 12 -999
2009-04-27 10:41:10 51°15.926 2°36.628 17.5 11.4 12 -999
2009-04-27 10:41:20 51°15.957 2°36.639 17.5 11.4 12 -999
2009-04-27 10:41:30 51°15.986 2°36.652 17.5 11.4 12 -999
2009-04-27 10:41:40 51°16.014 2°36.663 17.5 11.4 12 -999
2009-04-27 10:41:50 51°16.04 2°36.672 17.5 11.4 12 -999
2009-04-27 10:42:00 51°16.065 2°36.68 16.8 8.69 12 -999
2009-04-27 10:42:10 51°16.088 2°36.688 16.8 8.69 12 -999
2009-04-27 10:42:20 51°16.11 2°36.695 16.8 8.69 12 -999
2009-04-27 10:42:30 51°16.131 2°36.702 16.8 8.69 12 -999
2009-04-27 10:42:40 51°16.153 2°36.708 16.8 8.69 12 -999
2009-04-27 10:42:50 51°16.175 2°36.715 16.8 8.69 12 -999
2009-04-27 10:43:00 51°16.197 2°36.721 15.4 8.19 10 -999
2009-04-27 10:43:10 51°16.22 2°36.729 15.4 8.19 10 -999
2009-04-27 10:43:20 51°16.243 2°36.736 15.4 8.19 10 -999
2009-04-27 10:43:30 51°16.266 2°36.743 15.4 8.19 10 -999
2009-04-27 10:43:40 51°16.289 2°36.75 15.4 8.19 10 -999
2009-04-27 10:43:50 51°16.311 2°36.757 15.4 8.19 10 -999
2009-04-27 10:44:00 51°16.334 2°36.763 16 8.4 11 -999
2009-04-27 10:44:10 51°16.357 2°36.77 16 8.4 11 -999
2009-04-27 10:44:20 51°16.383 2°36.777 16 8.4 11 -999
2009-04-27 10:44:30 51°16.403 2°36.783 16 8.4 11 -999
2009-04-27 10:44:40 51°16.428 2°36.79 16 8.4 11 -999
2009-04-27 10:44:50 51°16.449 2°36.796 16 8.4 11 -999
2009-04-27 10:45:00 51°16.474 2°36.803 16.1 8.09 9 -999
2009-04-27 10:45:10 51°16.494 2°36.809 16.1 8.09 9 -999
2009-04-27 10:45:20 51°16.511 2°36.814 16.1 8.09 9 -999
2009-04-27 10:45:30 51°16.526 2°36.817 16.1 8.09 9 -999
2009-04-27 10:45:40 51°16.54 2°36.82 16.1 8.09 9 -999
2009-04-27 10:45:50 51°16.553 2°36.822 16.1 8.09 9 -999
2009-04-27 10:46:00 51°16.564 2°36.824 13.9 4 3 -999
2009-04-27 10:46:10 51°16.573 2°36.824 13.9 4 3 -999
2009-04-27 10:46:20 51°16.583 2°36.823 13.9 4 3 -999
2009-04-27 10:46:30 51°16.591 2°36.822 13.9 4 3 -999
2009-04-27 10:46:40 51°16.599 2°36.82 13.9 4 3 -999
2009-04-27 10:46:50 51°16.606 2°36.818 13.9 4 3 -999
2009-04-27 10:47:00 51°16.611 2°36.816 0.5 1.8 344 -999
2009-04-27 10:47:10 51°16.616 2°36.814 0.5 1.8 344 -999
2009-04-27 10:47:20 51°16.62 2°36.812 0.5 1.8 344 -999
2009-04-27 10:47:30 51°16.624 2°36.81 0.5 1.8 344 -999
2009-04-27 10:47:40 51°16.627 2°36.809 0.5 1.8 344 -999
2009-04-27 10:47:50 51°16.631 2°36.807 0.5 1.8 344 -999
2009-04-27 10:48:00 51°16.634 2°36.806 4 1.19 341 -999
2009-04-27 10:48:10 51°16.637 2°36.804 4 1.19 341 -999
2009-04-27 10:48:20 51°16.64 2°36.802 4 1.19 341 -999
2009-04-27 10:48:30 51°16.642 2°36.8 4 1.19 341 -999
2009-04-27 10:48:40 51°16.644 2°36.797 4 1.19 341 -999
2009-04-27 10:48:50 51°16.646 2°36.795 4 1.19 341 -999
2009-04-27 10:49:00 51°16.648 2°36.792 348.6 0.8 317 -999
2009-04-27 10:49:10 51°16.65 2°36.79 348.6 0.8 317 -999
2009-04-27 10:49:20 51°16.651 2°36.788 348.6 0.8 317 -999
2009-04-27 10:49:30 51°16.652 2°36.785 348.6 0.8 317 -999
2009-04-27 10:49:40 51°16.653 2°36.783 348.6 0.8 317 -999
2009-04-27 10:49:50 51°16.654 2°36.781 348.6 0.8 317 -999
2009-04-27 10:50:00 51°16.655 2°36.779 335.5 0.59 311 -999
2009-04-27 10:50:10 51°16.656 2°36.776 335.5 0.59 311 -999
2009-04-27 10:50:20 51°16.657 2°36.774 335.5 0.59 311 -999
2009-04-27 10:50:30 51°16.658 2°36.772 335.5 0.59 311 -999
2009-04-27 10:50:40 51°16.659 2°36.77 335.5 0.59 311 -999
2009-04-27 10:50:50 51°16.66 2°36.768 335.5 0.59 311 -999
2009-04-27 10:51:00 51°16.661 2°36.766 323.5 0.59 302 -999
2009-04-27 10:51:10 51°16.662 2°36.764 323.5 0.59 302 -999
2009-04-27 10:51:20 51°16.662 2°36.762 323.5 0.59 302 -999
2009-04-27 10:51:30 51°16.663 2°36.759 323.5 0.59 302 -999
2009-04-27 10:51:40 51°16.663 2°36.757 323.5 0.59 302 -999
2009-04-27 10:51:50 51°16.664 2°36.754 323.5 0.59 302 -999
2009-04-27 10:52:00 51°16.664 2°36.753 312.1 0.4 281 -999
2009-04-27 10:52:10 51°16.664 2°36.751 312.1 0.4 281 -999
2009-04-27 10:52:20 51°16.665 2°36.75 312.1 0.4 281 -999
2009-04-27 10:52:30 51°16.665 2°36.748 312.1 0.4 281 -999
2009-04-27 10:52:40 51°16.665 2°36.747 312.1 0.4 281 -999
2009-04-27 10:52:50 51°16.666 2°36.746 312.1 0.4 281 -999
2009-04-27 10:53:00 51°16.666 2°36.745 307.8 0.2 281 -999
2009-04-27 10:53:10 51°16.666 2°36.744 307.8 0.2 281 -999
2009-04-27 10:53:20 51°16.667 2°36.744 307.8 0.2 281 -999
2009-04-27 10:53:30 51°16.667 2°36.743 307.8 0.2 281 -999
2009-04-27 10:53:40 51°16.667 2°36.743 307.8 0.2 281 -999
2009-04-27 10:53:50 51°16.667 2°36.742 307.8 0.2 281 -999
2009-04-27 10:54:00 51°16.667 2°36.741 310.8 0.2 312 -999
2009-04-27 10:54:10 51°16.667 2°36.741 310.8 0.2 312 -999
2009-04-27 10:54:20 51°16.668 2°36.74 310.8 0.2 312 -999
2009-04-27 10:54:30 51°16.668 2°36.739 310.8 0.2 312 -999
2009-04-27 10:54:40 51°16.669 2°36.736 310.8 0.2 312 -999
2009-04-27 10:54:50 51°16.671 2°36.732 310.8 0.2 312 -999
2009-04-27 10:55:00 51°16.674 2°36.727 314.6 1.8 308 -999
2009-04-27 10:55:10 51°16.679 2°36.717 314.6 1.8 308 -999
2009-04-27 10:55:20 51°16.688 2°36.702 314.6 1.8 308 -999
2009-04-27 10:55:30 51°16.701 2°36.687 314.6 1.8 308 -999
2009-04-27 10:55:40 51°16.718 2°36.671 314.6 1.8 308 -999
2009-04-27 10:55:50 51°16.739 2°36.652 314.6 1.8 308 -999
2009-04-27 10:56:00 51°16.762 2°36.63 336 9.9 329 -999
2009-04-27 10:56:10 51°16.787 2°36.607 336 9.9 329 -999
2009-04-27 10:56:20 51°16.813 2°36.582 336 9.9 329 -999
2009-04-27 10:56:30 51°16.84 2°36.558 336 9.9 329 -999
2009-04-27 10:56:40 51°16.867 2°36.533 336 9.9 329 -999
2009-04-27 10:56:50 51°16.895 2°36.51 336 9.9 329 -999
2009-04-27 10:57:00 51°16.922 2°36.486 337.1 11.3 331 -999
2009-04-27 10:57:10 51°16.949 2°36.46 337.1 11.3 331 -999
2009-04-27 10:57:20 51°16.976 2°36.436 337.1 11.3 331 -999
2009-04-27 10:57:30 51°17.003 2°36.41 337.1 11.3 331 -999
2009-04-27 10:57:40 51°17.029 2°36.382 337.1 11.3 331 -999
2009-04-27 10:57:50 51°17.054 2°36.354 337.1 11.3 331 -999
2009-04-27 10:58:00 51°17.079 2°36.323 329.1 11.3 323 -999
2009-04-27 10:58:10 51°17.104 2°36.292 329.1 11.3 323 -999
2009-04-27 10:58:20 51°17.129 2°36.261 329.1 11.3 323 -999
2009-04-27 10:58:30 51°17.154 2°36.231 329.1 11.3 323 -999
2009-04-27 10:58:40 51°17.179 2°36.2 329.1 11.3 323 -999
2009-04-27 10:58:50 51°17.205 2°36.171 329.1 11.3 323 -999
2009-04-27 10:59:00 51°17.23 2°36.14 329.6 11.4 321 -999
2009-04-27 10:59:10 51°17.258 2°36.108 329.6 11.4 321 -999
2009-04-27 10:59:20 51°17.283 2°36.078 329.6 11.4 321 -999
2009-04-27 10:59:30 51°17.308 2°36.048 329.6 11.4 321 -999
2009-04-27 10:59:40 51°17.333 2°36.019 329.6 11.4 321 -999
2009-04-27 10:59:50 51°17.358 2°35.991 329.6 11.4 321 -999
2009-04-27 11:00:00 51°17.382 2°35.96 331.8 11.09 320 -999
2009-04-27 11:00:10 51°17.406 2°35.927 331.8 11.09 320 -999
2009-04-27 11:00:20 51°17.426 2°35.896 331.8 11.09 320 -999
2009-04-27 11:00:30 51°17.448 2°35.861 331.8 11.09 320 -999
2009-04-27 11:00:40 51°17.469 2°35.825 331.8 11.09 320 -999
2009-04-27 11:00:50 51°17.491 2°35.79 331.8 11.09 320 -999
2009-04-27 11:01:00 51°17.512 2°35.754 319.6 11.19 317 -999
2009-04-27 11:01:10 51°17.534 2°35.719 319.6 11.19 317 -999
2009-04-27 11:01:20 51°17.555 2°35.683 319.6 11.19 317 -999
2009-04-27 11:01:30 51°17.576 2°35.646 319.6 11.19 317 -999
2009-04-27 11:01:40 51°17.595 2°35.607 319.6 11.19 317 -999
2009-04-27 11:01:50 51°17.613 2°35.567 319.6 11.19 317 -999
2009-04-27 11:02:00 51°17.631 2°35.526 311.3 11.19 304 -999
2009-04-27 11:02:10 51°17.649 2°35.486 311.3 11.19 304 -999
2009-04-27 11:02:20 51°17.667 2°35.445 311.3 11.19 304 -999
2009-04-27 11:02:30 51°17.685 2°35.403 311.3 11.19 304 -999
2009-04-27 11:02:40 51°17.703 2°35.361 311.3 11.19 304 -999
2009-04-27 11:02:50 51°17.72 2°35.32 311.3 11.19 304 -999
2009-04-27 11:03:00 51°17.736 2°35.276 308 11.4 299 -999
2009-04-27 11:03:10 51°17.75 2°35.231 308 11.4 299 -999
2009-04-27 11:03:20 51°17.762 2°35.184 308 11.4 299 -999
2009-04-27 11:03:30 51°17.774 2°35.135 308 11.4 299 -999
2009-04-27 11:03:40 51°17.785 2°35.087 308 11.4 299 -999
2009-04-27 11:03:50 51°17.796 2°35.037 308 11.4 299 -999
2009-04-27 11:04:00 51°17.805 2°34.989 292.6 11.59 287 -999
2009-04-27 11:04:10 51°17.812 2°34.938 292.6 11.59 287 -999
2009-04-27 11:04:20 51°17.817 2°34.887 292.6 11.59 287 -999
2009-04-27 11:04:30 51°17.821 2°34.836 292.6 11.59 287 -999
2009-04-27 11:04:40 51°17.822 2°34.784 292.6 11.59 287 -999
2009-04-27 11:04:50 51°17.824 2°34.731 292.6 11.59 287 -999
2009-04-27 11:05:00 51°17.825 2°34.678 275.1 12 271 -999
2009-04-27 11:05:10 51°17.826 2°34.625 275.1 12 271 -999
2009-04-27 11:05:20 51°17.827 2°34.572 275.1 12 271 -999
2009-04-27 11:05:30 51°17.828 2°34.519 275.1 12 271 -999
2009-04-27 11:05:40 51°17.829 2°34.465 275.1 12 271 -999
2009-04-27 11:05:50 51°17.831 2°34.412 275.1 12 271 -999
2009-04-27 11:06:00 51°17.832 2°34.353 276.3 12.09 272 -999
2009-04-27 11:06:10 51°17.834 2°34.299 276.3 12.09 272 -999
2009-04-27 11:06:20 51°17.836 2°34.246 276.3 12.09 272 -999
2009-04-27 11:06:30 51°17.837 2°34.193 276.3 12.09 272 -999
2009-04-27 11:06:40 51°17.836 2°34.14 276.3 12.09 272 -999
2009-04-27 11:06:50 51°17.833 2°34.088 276.3 12.09 272 -999
2009-04-27 11:07:00 51°17.829 2°34.035 266.6 12 264 -999
2009-04-27 11:07:10 51°17.825 2°33.988 266.6 12 264 -999
2009-04-27 11:07:20 51°17.82 2°33.935 266.6 12 264 -999
2009-04-27 11:07:30 51°17.816 2°33.882 266.6 12 264 -999
2009-04-27 11:07:40 51°17.811 2°33.829 266.6 12 264 -999
2009-04-27 11:07:50 51°17.806 2°33.776 266.6 12 264 -999
2009-04-27 11:08:00 51°17.801 2°33.723 263.8 12.09 262 -999
2009-04-27 11:08:10 51°17.797 2°33.67 263.8 12.09 262 -999
2009-04-27 11:08:20 51°17.792 2°33.618 263.8 12.09 262 -999
2009-04-27 11:08:30 51°17.787 2°33.565 263.8 12.09 262 -999
2009-04-27 11:08:40 51°17.783 2°33.513 263.8 12.09 262 -999
2009-04-27 11:08:50 51°17.778 2°33.46 263.8 12.09 262 -999
2009-04-27 11:09:00 51°17.774 2°33.407 265.3 12 263 -999
2009-04-27 11:09:10 51°17.77 2°33.354 265.3 12 263 -999
2009-04-27 11:09:20 51°17.763 2°33.303 265.3 12 263 -999
2009-04-27 11:09:30 51°17.756 2°33.251 265.3 12 263 -999
2009-04-27 11:09:40 51°17.748 2°33.2 265.3 12 263 -999
2009-04-27 11:09:50 51°17.739 2°33.15 265.3 12 263 -999
2009-04-27 11:10:00 51°17.729 2°33.1 256.3 11.9 253 -999
2009-04-27 11:10:10 51°17.72 2°33.049 256.3 11.9 253 -999
2009-04-27 11:10:20 51°17.709 2°32.999 256.3 11.9 253 -999
2009-04-27 11:10:30 51°17.698 2°32.949 256.3 11.9 253 -999
2009-04-27 11:10:40 51°17.686 2°32.901 256.3 11.9 253 -999
2009-04-27 11:10:50 51°17.673 2°32.853 256.3 11.9 253 -999
2009-04-27 11:11:00 51°17.66 2°32.805 248.6 11.8 246 -999
2009-04-27 11:11:10 51°17.647 2°32.757 248.6 11.8 246 -999
2009-04-27 11:11:20 51°17.634 2°32.709 248.6 11.8 246 -999
2009-04-27 11:11:30 51°17.621 2°32.662 248.6 11.8 246 -999
2009-04-27 11:11:40 51°17.607 2°32.614 248.6 11.8 246 -999
2009-04-27 11:11:50 51°17.594 2°32.567 248.6 11.8 246 -999
2009-04-27 11:12:00 51°17.581 2°32.52 248.5 11.8 247 -999
2009-04-27 11:12:10 51°17.569 2°32.472 248.5 11.8 247 -999
2009-04-27 11:12:20 51°17.556 2°32.424 248.5 11.8 247 -999
2009-04-27 11:12:30 51°17.544 2°32.376 248.5 11.8 247 -999
2009-04-27 11:12:40 51°17.532 2°32.329 248.5 11.8 247 -999
2009-04-27 11:12:50 51°17.52 2°32.282 248.5 11.8 247 -999
2009-04-27 11:13:00 51°17.507 2°32.234 249.5 11.69 247 -999
2009-04-27 11:13:10 51°17.494 2°32.187 249.5 11.69 247 -999
2009-04-27 11:13:20 51°17.481 2°32.139 249.5 11.69 247 -999
2009-04-27 11:13:30 51°17.468 2°32.092 249.5 11.69 247 -999
2009-04-27 11:13:40 51°17.454 2°32.044 249.5 11.69 247 -999
2009-04-27 11:13:50 51°17.442 2°31.997 249.5 11.69 247 -999
2009-04-27 11:14:00 51°17.429 2°31.949 249 11.69 247 -999
2009-04-27 11:14:10 51°17.416 2°31.902 249 11.69 247 -999
2009-04-27 11:14:20 51°17.404 2°31.854 249 11.69 247 -999
2009-04-27 11:14:30 51°17.392 2°31.807 249 11.69 247 -999
2009-04-27 11:14:40 51°17.379 2°31.76 249 11.69 247 -999
2009-04-27 11:14:50 51°17.367 2°31.712 249 11.69 247 -999
2009-04-27 11:15:00 51°17.356 2°31.664 250.5 11.59 248 -999
2009-04-27 11:15:10 51°17.344 2°31.617 250.5 11.59 248 -999
2009-04-27 11:15:20 51°17.332 2°31.569 250.5 11.59 248 -999
2009-04-27 11:15:30 51°17.319 2°31.522 250.5 11.59 248 -999
2009-04-27 11:15:40 51°17.307 2°31.474 250.5 11.59 248 -999
2009-04-27 11:15:50 51°17.296 2°31.427 250.5 11.59 248 -999
2009-04-27 11:16:00 51°17.283 2°31.38 250 11.5 247 -999
2009-04-27 11:16:10 51°17.271 2°31.333 250 11.5 247 -999
2009-04-27 11:16:20 51°17.259 2°31.286 250 11.5 247 -999
2009-04-27 11:16:30 51°17.246 2°31.238 250 11.5 247 -999
2009-04-27 11:16:40 51°17.234 2°31.191 250 11.5 247 -999
2009-04-27 11:16:50 51°17.221 2°31.143 250 11.5 247 -999
2009-04-27 11:17:00 51°17.209 2°31.096 250.4 11.5 248 -999
2009-04-27 11:17:10 51°17.197 2°31.049 250.4 11.5 248 -999
2009-04-27 11:17:20 51°17.184 2°31.002 250.4 11.5 248 -999
2009-04-27 11:17:30 51°17.172 2°30.955 250.4 11.5 248 -999
2009-04-27 11:17:40 51°17.159 2°30.909 250.4 11.5 248 -999
2009-04-27 11:17:50 51°17.147 2°30.862 250.4 11.5 248 -999
2009-04-27 11:18:00 51°17.134 2°30.815 250 11.5 246 -999
2009-04-27 11:18:10 51°17.122 2°30.768 250 11.5 246 -999
2009-04-27 11:18:20 51°17.109 2°30.721 250 11.5 246 -999
2009-04-27 11:18:30 51°17.097 2°30.674 250 11.5 246 -999
2009-04-27 11:18:40 51°17.084 2°30.627 250 11.5 246 -999
2009-04-27 11:18:50 51°17.071 2°30.58 250 11.5 246 -999
2009-04-27 11:19:00 51°17.059 2°30.532 249.6 11.69 247 -999
2009-04-27 11:19:10 51°17.047 2°30.484 249.6 11.69 247 -999
2009-04-27 11:19:20 51°17.031 2°30.433 249.6 11.69 247 -999
2009-04-27 11:19:30 51°17.019 2°30.39 249.6 11.69 247 -999
2009-04-27 11:19:40 51°17.006 2°30.338 249.6 11.69 247 -999
2009-04-27 11:19:50 51°16.995 2°30.295 249.6 11.69 247 -999
2009-04-27 11:20:00 51°16.982 2°30.242 250.6 11.69 247 -999
2009-04-27 11:20:10 51°16.97 2°30.194 250.6 11.69 247 -999
2009-04-27 11:20:20 51°16.957 2°30.146 250.6 11.69 247 -999
2009-04-27 11:20:30 51°16.945 2°30.098 250.6 11.69 247 -999
2009-04-27 11:20:40 51°16.932 2°30.05 250.6 11.69 247 -999
2009-04-27 11:20:50 51°16.919 2°30.003 250.6 11.69 247 -999
2009-04-27 11:21:00 51°16.907 2°29.956 250.6 11.69 247 -999
2009-04-27 11:21:10 51°16.895 2°29.913 250.6 11.69 247 -999
2009-04-27 11:21:20 51°16.883 2°29.866 250.6 11.69 247 -999
2009-04-27 11:21:30 51°16.87 2°29.819 250.6 11.69 247 -999
2009-04-27 11:21:40 51°16.858 2°29.771 250.6 11.69 247 -999
2009-04-27 11:21:50 51°16.845 2°29.724 250.6 11.69 247 -999
2009-04-27 11:22:00 51°16.833 2°29.676 249.9 11.69 246 -999
2009-04-27 11:22:10 51°16.82 2°29.629 249.9 11.69 246 -999
2009-04-27 11:22:20 51°16.807 2°29.581 249.9 11.69 246 -999
2009-04-27 11:22:30 51°16.795 2°29.533 249.9 11.69 246 -999
2009-04-27 11:22:40 51°16.783 2°29.486 249.9 11.69 246 -999
2009-04-27 11:22:50 51°16.77 2°29.438 249.9 11.69 246 -999
2009-04-27 11:23:00 51°16.758 2°29.39 250 11.69 247 -999
2009-04-27 11:23:10 51°16.746 2°29.343 250 11.69 247 -999
2009-04-27 11:23:20 51°16.733 2°29.295 250 11.69 247 -999
2009-04-27 11:23:30 51°16.721 2°29.248 250 11.69 247 -999
2009-04-27 11:23:40 51°16.708 2°29.2 250 11.69 247 -999
2009-04-27 11:23:50 51°16.696 2°29.153 250 11.69 247 -999
2009-04-27 11:24:00 51°16.684 2°29.105 250.5 11.69 247 -999
2009-04-27 11:24:10 51°16.671 2°29.058 250.5 11.69 247 -999
2009-04-27 11:24:20 51°16.658 2°29.01 250.5 11.69 247 -999
2009-04-27 11:24:30 51°16.646 2°28.963 250.5 11.69 247 -999
2009-04-27 11:24:40 51°16.633 2°28.915 250.5 11.69 247 -999
2009-04-27 11:24:50 51°16.621 2°28.868 250.5 11.69 247 -999
2009-04-27 11:25:00 51°16.608 2°28.821 249.5 11.5 247 -999
2009-04-27 11:25:10 51°16.596 2°28.773 249.5 11.5 247 -999
2009-04-27 11:25:20 51°16.583 2°28.726 249.5 11.5 247 -999
2009-04-27 11:25:30 51°16.571 2°28.679 249.5 11.5 247 -999
2009-04-27 11:25:40 51°16.559 2°28.632 249.5 11.5 247 -999
2009-04-27 11:25:50 51°16.547 2°28.585 249.5 11.5 247 -999
2009-04-27 11:26:00 51°16.534 2°28.538 250.4 11.59 247 -999
2009-04-27 11:26:10 51°16.522 2°28.491 250.4 11.59 247 -999
2009-04-27 11:26:20 51°16.509 2°28.444 250.4 11.59 247 -999
2009-04-27 11:26:30 51°16.497 2°28.397 250.4 11.59 247 -999
2009-04-27 11:26:40 51°16.485 2°28.349 250.4 11.59 247 -999
2009-04-27 11:26:50 51°16.472 2°28.302 250.4 11.59 247 -999
2009-04-27 11:27:00 51°16.46 2°28.255 250.3 11.59 247 -999
2009-04-27 11:27:10 51°16.446 2°28.203 250.3 11.59 247 -999
2009-04-27 11:27:20 51°16.434 2°28.156 250.3 11.59 247 -999
2009-04-27 11:27:30 51°16.422 2°28.114 250.3 11.59 247 -999
2009-04-27 11:27:40 51°16.41 2°28.067 250.3 11.59 247 -999
2009-04-27 11:27:50 51°16.397 2°28.02 250.3 11.59 247 -999
2009-04-27 11:28:00 51°16.385 2°27.972 250 11.59 247 -999
2009-04-27 11:28:10 51°16.372 2°27.925 250 11.59 247 -999
2009-04-27 11:28:20 51°16.36 2°27.877 250 11.59 247 -999
2009-04-27 11:28:30 51°16.348 2°27.829 250 11.59 247 -999
2009-04-27 11:28:40 51°16.335 2°27.782 250 11.59 247 -999
2009-04-27 11:28:50 51°16.324 2°27.735 250 11.59 247 -999
2009-04-27 11:29:00 51°16.312 2°27.688 250.5 11.4 248 -999
2009-04-27 11:29:10 51°16.299 2°27.637 250.5 11.4 248 -999
2009-04-27 11:29:20 51°16.286 2°27.59 250.5 11.4 248 -999
2009-04-27 11:29:30 51°16.274 2°27.543 250.5 11.4 248 -999
2009-04-27 11:29:40 51°16.262 2°27.497 250.5 11.4 248 -999
2009-04-27 11:29:50 51°16.251 2°27.45 250.5 11.4 248 -999
2009-04-27 11:30:00 51°16.241 2°27.403 252 11.19 249 -999
2009-04-27 11:30:10 51°16.229 2°27.357 252 11.19 249 -999
2009-04-27 11:30:20 51°16.218 2°27.311 252 11.19 249 -999
2009-04-27 11:30:30 51°16.208 2°27.266 252 11.19 249 -999
2009-04-27 11:30:40 51°16.197 2°27.221 252 11.19 249 -999
2009-04-27 11:30:50 51°16.186 2°27.177 252 11.19 249 -999
2009-04-27 11:31:00 51°16.176 2°27.133 251.5 10.59 249 -999
2009-04-27 11:31:10 51°16.166 2°27.094 251.5 10.59 249 -999
2009-04-27 11:31:20 51°16.156 2°27.051 251.5 10.59 249 -999
2009-04-27 11:31:30 51°16.145 2°27.009 251.5 10.59 249 -999
2009-04-27 11:31:40 51°16.134 2°26.968 251.5 10.59 249 -999
2009-04-27 11:31:50 51°16.123 2°26.926 251.5 10.59 249 -999
2009-04-27 11:32:00 51°16.112 2°26.885 251 10.09 247 -999
2009-04-27 11:32:10 51°16.102 2°26.844 251 10.09 247 -999
2009-04-27 11:32:20 51°16.091 2°26.802 251 10.09 247 -999
2009-04-27 11:32:30 51°16.081 2°26.762 251 10.09 247 -999
2009-04-27 11:32:40 51°16.071 2°26.721 251 10.09 247 -999
2009-04-27 11:32:50 51°16.06 2°26.68 251 10.09 247 -999
2009-04-27 11:33:00 51°16.049 2°26.64 252 9.9 249 -999
2009-04-27 11:33:10 51°16.04 2°26.598 252 9.9 249 -999
2009-04-27 11:33:20 51°16.032 2°26.557 252 9.9 249 -999
2009-04-27 11:33:30 51°16.022 2°26.516 252 9.9 249 -999
2009-04-27 11:33:40 51°16.014 2°26.475 252 9.9 249 -999
2009-04-27 11:33:50 51°16.005 2°26.434 252 9.9 249 -999
2009-04-27 11:34:00 51°15.997 2°26.392 255.5 9.8 253 -999
2009-04-27 11:34:10 51°15.991 2°26.35 255.5 9.8 253 -999
2009-04-27 11:34:20 51°15.987 2°26.308 255.5 9.8 253 -999
2009-04-27 11:34:30 51°15.986 2°26.266 255.5 9.8 253 -999
2009-04-27 11:34:40 51°15.987 2°26.224 255.5 9.8 253 -999
2009-04-27 11:34:50 51°15.988 2°26.182 255.5 9.8 253 -999
2009-04-27 11:35:00 51°15.991 2°26.14 273.8 9.5 276 -999
2009-04-27 11:35:10 51°15.996 2°26.099 273.8 9.5 276 -999
2009-04-27 11:35:20 51°16.004 2°26.059 273.8 9.5 276 -999
2009-04-27 11:35:30 51°16.015 2°26.019 273.8 9.5 276 -999
2009-04-27 11:35:40 51°16.026 2°25.98 273.8 9.5 276 -999
2009-04-27 11:35:50 51°16.039 2°25.942 273.8 9.5 276 -999
2009-04-27 11:36:00 51°16.053 2°25.905 296.3 9.8 302 -999
2009-04-27 11:36:10 51°16.069 2°25.87 296.3 9.8 302 -999
2009-04-27 11:36:20 51°16.089 2°25.833 296.3 9.8 302 -999
2009-04-27 11:36:30 51°16.106 2°25.804 296.3 9.8 302 -999
2009-04-27 11:36:40 51°16.125 2°25.775 296.3 9.8 302 -999
2009-04-27 11:36:50 51°16.141 2°25.753 296.3 9.8 302 -999
2009-04-27 11:37:00 51°16.155 2°25.736 312.8 6 322 -999
2009-04-27 11:37:10 51°16.166 2°25.721 312.8 6 322 -999
2009-04-27 11:37:20 51°16.174 2°25.709 312.8 6 322 -999
2009-04-27 11:37:30 51°16.18 2°25.699 312.8 6 322 -999
2009-04-27 11:37:40 51°16.185 2°25.691 312.8 6 322 -999
2009-04-27 11:37:50 51°16.188 2°25.686 312.8 6 322 -999
2009-04-27 11:38:00 51°16.192 2°25.683 288.8 1.19 336 -999
2009-04-27 11:38:10 51°16.194 2°25.682 288.8 1.19 336 -999
2009-04-27 11:38:20 51°16.197 2°25.682 288.8 1.19 336 -999
2009-04-27 11:38:30 51°16.2 2°25.683 288.8 1.19 336 -999
2009-04-27 11:38:40 51°16.202 2°25.685 288.8 1.19 336 -999
2009-04-27 11:38:50 51°16.204 2°25.688 288.8 1.19 336 -999
2009-04-27 11:39:00 51°16.207 2°25.693 288.1 1.19 55 -999
2009-04-27 11:39:10 51°16.209 2°25.698 288.1 1.19 55 -999
2009-04-27 11:39:20 51°16.211 2°25.703 288.1 1.19 55 -999
2009-04-27 11:39:30 51°16.212 2°25.708 288.1 1.19 55 -999
2009-04-27 11:39:40 51°16.214 2°25.713 288.1 1.19 55 -999
2009-04-27 11:39:50 51°16.216 2°25.719 288.1 1.19 55 -999
2009-04-27 11:40:00 51°16.218 2°25.725 286.1 1.5 65 -999
2009-04-27 11:40:10 51°16.219 2°25.731 286.1 1.5 65 -999
2009-04-27 11:40:20 51°16.221 2°25.737 286.1 1.5 65 -999
2009-04-27 11:40:30 51°16.223 2°25.744 286.1 1.5 65 -999
2009-04-27 11:40:40 51°16.224 2°25.751 286.1 1.5 65 -999
2009-04-27 11:40:50 51°16.226 2°25.758 286.1 1.5 65 -999
2009-04-27 11:41:00 51°16.227 2°25.766 286.1 1.89 75 -999
2009-04-27 11:41:10 51°16.229 2°25.775 286.1 1.89 75 -999
2009-04-27 11:41:20 51°16.23 2°25.783 286.1 1.89 75 -999
2009-04-27 11:41:30 51°16.232 2°25.792 286.1 1.89 75 -999
2009-04-27 11:41:40 51°16.233 2°25.802 286.1 1.89 75 -999
2009-04-27 11:41:50 51°16.235 2°25.812 286.1 1.89 75 -999
2009-04-27 11:42:00 51°16.236 2°25.823 293.1 2.39 80 -999
2009-04-27 11:42:10 51°16.237 2°25.833 293.1 2.39 80 -999
2009-04-27 11:42:20 51°16.239 2°25.843 293.1 2.39 80 -999
2009-04-27 11:42:30 51°16.24 2°25.854 293.1 2.39 80 -999
2009-04-27 11:42:40 51°16.241 2°25.864 293.1 2.39 80 -999
2009-04-27 11:42:50 51°16.242 2°25.874 293.1 2.39 80 -999
2009-04-27 11:43:00 51°16.243 2°25.884 307.6 2.39 83 -999
2009-04-27 11:43:10 51°16.243 2°25.896 307.6 2.39 83 -999
2009-04-27 11:43:20 51°16.244 2°25.906 307.6 2.39 83 -999
2009-04-27 11:43:30 51°16.245 2°25.917 307.6 2.39 83 -999
2009-04-27 11:43:40 51°16.246 2°25.928 307.6 2.39 83 -999
2009-04-27 11:43:50 51°16.246 2°25.94 307.6 2.39 83 -999
2009-04-27 11:44:00 51°16.247 2°25.952 314.6 2.7 85 -999
2009-04-27 11:44:10 51°16.247 2°25.964 314.6 2.7 85 -999
2009-04-27 11:44:20 51°16.248 2°25.975 314.6 2.7 85 -999
2009-04-27 11:44:30 51°16.248 2°25.986 314.6 2.7 85 -999
2009-04-27 11:44:40 51°16.249 2°25.997 314.6 2.7 85 -999
2009-04-27 11:44:50 51°16.249 2°26.009 314.6 2.7 85 -999
2009-04-27 11:45:00 51°16.25 2°26.019 324.1 2.6 86 -999
2009-04-27 11:45:10 51°16.251 2°26.031 324.1 2.6 86 -999
2009-04-27 11:45:20 51°16.251 2°26.041 324.1 2.6 86 -999
2009-04-27 11:45:30 51°16.251 2°26.054 324.1 2.6 86 -999
2009-04-27 11:45:40 51°16.251 2°26.065 324.1 2.6 86 -999
2009-04-27 11:45:50 51°16.252 2°26.078 324.1 2.6 86 -999
2009-04-27 11:46:00 51°16.252 2°26.089 325.8 2.6 89 -999
2009-04-27 11:46:10 51°16.252 2°26.101 325.8 2.6 89 -999
2009-04-27 11:46:20 51°16.252 2°26.112 325.8 2.6 89 -999
2009-04-27 11:46:30 51°16.252 2°26.124 325.8 2.6 89 -999
2009-04-27 11:46:40 51°16.253 2°26.135 325.8 2.6 89 -999
2009-04-27 11:46:50 51°16.253 2°26.148 325.8 2.6 89 -999
2009-04-27 11:47:00 51°16.254 2°26.16 327 2.7 87 -999
2009-04-27 11:47:10 51°16.254 2°26.17 327 2.7 87 -999
2009-04-27 11:47:20 51°16.255 2°26.182 327 2.7 87 -999
2009-04-27 11:47:30 51°16.256 2°26.192 327 2.7 87 -999
2009-04-27 11:47:40 51°16.259 2°26.201 327 2.7 87 -999
2009-04-27 11:47:50 51°16.263 2°26.208 327 2.7 87 -999
2009-04-27 11:48:00 51°16.269 2°26.212 325.1 2.5 9 -999
2009-04-27 11:48:10 51°16.277 2°26.209 325.1 2.5 9 -999
2009-04-27 11:48:20 51°16.288 2°26.199 325.1 2.5 9 -999
2009-04-27 11:48:30 51°16.299 2°26.184 325.1 2.5 9 -999
2009-04-27 11:48:40 51°16.311 2°26.164 325.1 2.5 9 -999
2009-04-27 11:48:50 51°16.325 2°26.139 325.1 2.5 9 -999
2009-04-27 11:49:00 51°16.34 2°26.109 303 8.59 308 -999
2009-04-27 11:49:10 51°16.355 2°26.078 303 8.59 308 -999
2009-04-27 11:49:20 51°16.37 2°26.046 303 8.59 308 -999
2009-04-27 11:49:30 51°16.385 2°26.013 303 8.59 308 -999
2009-04-27 11:49:40 51°16.401 2°25.979 303 8.59 308 -999
2009-04-27 11:49:50 51°16.419 2°25.941 303 8.59 308 -999
2009-04-27 11:50:00 51°16.436 2°25.907 301.3 10 310 -999
2009-04-27 11:50:10 51°16.452 2°25.877 301.3 10 310 -999
2009-04-27 11:50:20 51°16.471 2°25.845 301.3 10 310 -999
2009-04-27 11:50:30 51°16.492 2°25.813 301.3 10 310 -999
2009-04-27 11:50:40 51°16.514 2°25.783 301.3 10 310 -999
2009-04-27 11:50:50 51°16.538 2°25.757 301.3 10 310 -999
2009-04-27 11:51:00 51°16.563 2°25.731 320.6 10.9 332 -999
2009-04-27 11:51:10 51°16.591 2°25.711 320.6 10.9 332 -999
2009-04-27 11:51:20 51°16.621 2°25.698 320.6 10.9 332 -999
2009-04-27 11:51:30 51°16.653 2°25.691 320.6 10.9 332 -999
2009-04-27 11:51:40 51°16.685 2°25.688 320.6 10.9 332 -999
2009-04-27 11:51:50 51°16.717 2°25.685 320.6 10.9 332 -999
2009-04-27 11:52:00 51°16.751 2°25.688 355.8 11.8   -999
2009-04-27 11:52:10 51°16.784 2°25.692 355.8 11.8   -999
2009-04-27 11:52:20 51°16.818 2°25.7 355.8 11.8   -999
2009-04-27 11:52:30 51°16.852 2°25.714 355.8 11.8   -999
2009-04-27 11:52:40 51°16.885 2°25.73 355.8 11.8   -999
2009-04-27 11:52:50 51°16.918 2°25.748 355.8 11.8   -999
2009-04-27 11:53:00 51°16.95 2°25.772 19.3 12.69 22 -999
2009-04-27 11:53:10 51°16.985 2°25.8 19.3 12.69 22 -999
2009-04-27 11:53:20 51°17.016 2°25.826 19.3 12.69 22 -999
2009-04-27 11:53:30 51°17.048 2°25.85 19.3 12.69 22 -999
2009-04-27 11:53:40 51°17.079 2°25.877 19.3 12.69 22 -999
2009-04-27 11:53:50 51°17.109 2°25.905 19.3 12.69 22 -999
2009-04-27 11:54:00 51°17.136 2°25.93 23.5 12.69 36 -999
2009-04-27 11:54:10 51°17.17 2°25.962 23.5 12.69 36 -999
2009-04-27 11:54:20 51°17.199 2°25.994 23.5 12.69 36 -999
2009-04-27 11:54:30 51°17.229 2°26.027 23.5 12.69 36 -999
2009-04-27 11:54:40 51°17.258 2°26.061 23.5 12.69 36 -999
2009-04-27 11:54:50 51°17.286 2°26.097 23.5 12.69 36 -999
2009-04-27 11:55:00 51°17.312 2°26.136 36.7 13 44 -999
2009-04-27 11:55:10 51°17.34 2°26.174 36.7 13 44 -999
2009-04-27 11:55:20 51°17.367 2°26.213 36.7 13 44 -999
2009-04-27 11:55:30 51°17.392 2°26.247 36.7 13 44 -999
2009-04-27 11:55:40 51°17.418 2°26.286 36.7 13 44 -999
2009-04-27 11:55:50 51°17.444 2°26.328 36.7 13 44 -999
2009-04-27 11:56:00 51°17.47 2°26.366 40.3 12.8 47 -999
2009-04-27 11:56:10 51°17.497 2°26.404 40.3 12.8 47 -999
2009-04-27 11:56:20 51°17.526 2°26.447 40.3 12.8 47 -999
2009-04-27 11:56:30 51°17.549 2°26.484 40.3 12.8 47 -999
2009-04-27 11:56:40 51°17.577 2°26.529 40.3 12.8 47 -999
2009-04-27 11:56:50 51°17.602 2°26.563 40.3 12.8 47 -999
2009-04-27 11:57:00 51°17.628 2°26.603 41.5 13.09 43 -999
2009-04-27 11:57:10 51°17.655 2°26.642 41.5 13.09 43 -999
2009-04-27 11:57:20 51°17.684 2°26.686 41.5 13.09 43 -999
2009-04-27 11:57:30 51°17.709 2°26.721 41.5 13.09 43 -999
2009-04-27 11:57:40 51°17.739 2°26.765 41.5 13.09 43 -999
2009-04-27 11:57:50 51°17.763 2°26.799 41.5 13.09 43 -999
2009-04-27 11:58:00 51°17.794 2°26.842 41.1 13.19 44 -999
2009-04-27 11:58:10 51°17.821 2°26.881 41.1 13.19 44 -999
2009-04-27 11:58:20 51°17.848 2°26.92 41.1 13.19 44 -999
2009-04-27 11:58:30 51°17.874 2°26.96 41.1 13.19 44 -999
2009-04-27 11:58:40 51°17.902 2°26.997 41.1 13.19 44 -999
2009-04-27 11:58:50 51°17.929 2°27.036 41.1 13.19 44 -999
2009-04-27 11:59:00 51°17.956 2°27.075 41.1 13.09 40 -999
2009-04-27 11:59:10 51°17.983 2°27.114 41.1 13.09 40 -999
2009-04-27 11:59:20 51°18.011 2°27.153 41.1 13.09 40 -999
2009-04-27 11:59:30 51°18.037 2°27.193 41.1 13.09 40 -999
2009-04-27 11:59:40 51°18.063 2°27.235 41.1 13.09 40 -999
2009-04-27 11:59:50 51°18.089 2°27.277 41.1 13.09 40 -999
2009-04-27 13:00:00 51°26.31 2°23.89 314.3 11.69 324 -999
2009-04-27 13:00:10 51°26.335 2°23.859 314.3 11.69 324 -999
2009-04-27 13:00:20 51°26.363 2°23.823 314.3 11.69 324 -999
2009-04-27 13:00:30 51°26.386 2°23.794 314.3 11.69 324 -999
2009-04-27 13:00:40 51°26.413 2°23.759 314.3 11.69 324 -999
2009-04-27 13:00:50 51°26.436 2°23.73 314.3 11.69 324 -999
2009-04-27 13:01:00 51°26.463 2°23.694 313.6 11.59 320 -999
2009-04-27 13:01:10 51°26.486 2°23.664 313.6 11.59 320 -999
2009-04-27 13:01:20 51°26.511 2°23.631 313.6 11.59 320 -999
2009-04-27 13:01:30 51°26.536 2°23.599 313.6 11.59 320 -999
2009-04-27 13:01:40 51°26.56 2°23.567 313.6 11.59 320 -999
2009-04-27 13:01:50 51°26.585 2°23.535 313.6 11.59 320 -999
2009-04-27 13:02:00 51°26.609 2°23.502 313 11.5 320 -999
2009-04-27 13:02:10 51°26.634 2°23.471 313 11.5 320 -999
2009-04-27 13:02:20 51°26.659 2°23.439 313 11.5 320 -999
2009-04-27 13:02:30 51°26.683 2°23.406 313 11.5 320 -999
2009-04-27 13:02:40 51°26.707 2°23.374 313 11.5 320 -999
2009-04-27 13:02:50 51°26.731 2°23.342 313 11.5 320 -999
2009-04-27 13:03:00 51°26.755 2°23.309 312.8 11.3 318 -999
2009-04-27 13:03:10 51°26.778 2°23.275 312.8 11.3 318 -999
2009-04-27 13:03:20 51°26.8 2°23.242 312.8 11.3 318 -999
2009-04-27 13:03:30 51°26.822 2°23.207 312.8 11.3 318 -999
2009-04-27 13:03:40 51°26.843 2°23.173 312.8 11.3 318 -999
2009-04-27 13:03:50 51°26.864 2°23.139 312.8 11.3 318 -999
2009-04-27 13:04:00 51°26.885 2°23.104 306.1 10.9 314 -999
2009-04-27 13:04:10 51°26.905 2°23.068 306.1 10.9 314 -999
2009-04-27 13:04:20 51°26.928 2°23.029 306.1 10.9 314 -999
2009-04-27 13:04:30 51°26.945 2°22.996 306.1 10.9 314 -999
2009-04-27 13:04:40 51°26.965 2°22.96 306.1 10.9 314 -999
2009-04-27 13:04:50 51°26.985 2°22.925 306.1 10.9 314 -999
2009-04-27 13:05:00 51°27.006 2°22.889 303.8 11.09 312 -999
2009-04-27 13:05:10 51°27.026 2°22.852 303.8 11.09 312 -999
2009-04-27 13:05:20 51°27.047 2°22.817 303.8 11.09 312 -999
2009-04-27 13:05:30 51°27.067 2°22.781 303.8 11.09 312 -999
2009-04-27 13:05:40 51°27.089 2°22.745 303.8 11.09 312 -999
2009-04-27 13:05:50 51°27.11 2°22.71 303.8 11.09 312 -999
2009-04-27 13:06:00 51°27.132 2°22.675 305.6 11.09 314 -999
2009-04-27 13:06:10 51°27.153 2°22.639 305.6 11.09 314 -999
2009-04-27 13:06:20 51°27.173 2°22.602 305.6 11.09 314 -999
2009-04-27 13:06:30 51°27.193 2°22.566 305.6 11.09 314 -999
2009-04-27 13:06:40 51°27.213 2°22.529 305.6 11.09 314 -999
2009-04-27 13:06:50 51°27.234 2°22.492 305.6 11.09 314 -999
2009-04-27 13:07:00 51°27.256 2°22.451 301.5 11 311 -999
2009-04-27 13:07:10 51°27.275 2°22.413 301.5 11 311 -999
2009-04-27 13:07:20 51°27.295 2°22.375 301.5 11 311 -999
2009-04-27 13:07:30 51°27.315 2°22.337 301.5 11 311 -999
2009-04-27 13:07:40 51°27.336 2°22.299 301.5 11 311 -999
2009-04-27 13:07:50 51°27.356 2°22.261 301.5 11 311 -999
2009-04-27 13:08:00 51°27.376 2°22.223 301.5 11.19 310 -999
2009-04-27 13:08:10 51°27.393 2°22.188 301.5 11.19 310 -999
2009-04-27 13:08:20 51°27.413 2°22.149 301.5 11.19 310 -999
2009-04-27 13:08:30 51°27.433 2°22.111 301.5 11.19 310 -999
2009-04-27 13:08:40 51°27.453 2°22.073 301.5 11.19 310 -999
2009-04-27 13:08:50 51°27.473 2°22.034 301.5 11.19 310 -999
2009-04-27 13:09:00 51°27.492 2°21.995 303 11.19 307 -999
2009-04-27 13:09:10 51°27.512 2°21.956 303 11.19 307 -999
2009-04-27 13:09:20 51°27.532 2°21.918 303 11.19 307 -999
2009-04-27 13:09:30 51°27.552 2°21.88 303 11.19 307 -999
2009-04-27 13:09:40 51°27.572 2°21.842 303 11.19 307 -999
2009-04-27 13:09:50 51°27.591 2°21.803 303 11.19 307 -999
2009-04-27 13:10:00 51°27.611 2°21.764 302 11.4 309 -999
2009-04-27 13:10:10 51°27.63 2°21.725 302 11.4 309 -999
2009-04-27 13:10:20 51°27.649 2°21.685 302 11.4 309 -999
2009-04-27 13:10:30 51°27.669 2°21.646 302 11.4 309 -999
2009-04-27 13:10:40 51°27.689 2°21.607 302 11.4 309 -999
2009-04-27 13:10:50 51°27.708 2°21.567 302 11.4 309 -999
2009-04-27 13:11:00 51°27.728 2°21.528 302.1 11.3 309 -999
2009-04-27 13:11:10 51°27.747 2°21.489 302.1 11.3 309 -999
2009-04-27 13:11:20 51°27.767 2°21.451 302.1 11.3 309 -999
2009-04-27 13:11:30 51°27.786 2°21.416 302.1 11.3 309 -999
2009-04-27 13:11:40 51°27.804 2°21.382 302.1 11.3 309 -999
2009-04-27 13:11:50 51°27.822 2°21.349 302.1 11.3 309 -999
2009-04-27 13:12:00 51°27.839 2°21.316 301.8 9.69 308 -999
2009-04-27 13:12:10 51°27.857 2°21.283 301.8 9.69 308 -999
2009-04-27 13:12:20 51°27.874 2°21.25 301.8 9.69 308 -999
2009-04-27 13:12:30 51°27.892 2°21.217 301.8 9.69 308 -999
2009-04-27 13:12:40 51°27.91 2°21.184 301.8 9.69 308 -999
2009-04-27 13:12:50 51°27.927 2°21.154 301.8 9.69 308 -999
2009-04-27 13:13:00 51°27.944 2°21.126 303.5 8.5 314 -999
2009-04-27 13:13:10 51°27.962 2°21.096 303.5 8.5 314 -999
2009-04-27 13:13:20 51°27.975 2°21.071 303.5 8.5 314 -999
2009-04-27 13:13:30 51°27.989 2°21.049 303.5 8.5 314 -999
2009-04-27 13:13:40 51°27.999 2°21.031 303.5 8.5 314 -999
2009-04-27 13:13:50 51°28.008 2°21.017 303.5 8.5 314 -999
2009-04-27 13:14:00 51°28.015 2°21.006 291.8 3 316 -999
2009-04-27 13:14:10 51°28.02 2°21 291.8 3 316 -999
2009-04-27 13:14:20 51°28.025 2°20.996 291.8 3 316 -999
2009-04-27 13:14:30 51°28.03 2°20.995 291.8 3 316 -999
2009-04-27 13:14:40 51°28.034 2°20.995 291.8 3 316 -999
2009-04-27 13:14:50 51°28.039 2°20.996 291.8 3 316 -999
2009-04-27 13:15:00 51°28.044 2°20.997 271.1 1.69 6 -999
2009-04-27 13:15:10 51°28.048 2°20.998 271.1 1.69 6 -999
2009-04-27 13:15:20 51°28.053 2°21 271.1 1.69 6 -999
2009-04-27 13:15:30 51°28.058 2°21.003 271.1 1.69 6 -999
2009-04-27 13:15:40 51°28.062 2°21.006 271.1 1.69 6 -999
2009-04-27 13:15:50 51°28.067 2°21.009 271.1 1.69 6 -999
2009-04-27 13:16:00 51°28.071 2°21.012 264 1.89 26 -999
2009-04-27 13:16:10 51°28.076 2°21.016 264 1.89 26 -999
2009-04-27 13:16:20 51°28.081 2°21.02 264 1.89 26 -999
2009-04-27 13:16:30 51°28.086 2°21.025 264 1.89 26 -999
2009-04-27 13:16:40 51°28.091 2°21.03 264 1.89 26 -999
2009-04-27 13:16:50 51°28.096 2°21.035 264 1.89 26 -999
2009-04-27 13:17:00 51°28.101 2°21.04 260.8 2.2 35 -999
2009-04-27 13:17:10 51°28.106 2°21.045 260.8 2.2 35 -999
2009-04-27 13:17:20 51°28.111 2°21.051 260.8 2.2 35 -999
2009-04-27 13:17:30 51°28.117 2°21.057 260.8 2.2 35 -999
2009-04-27 13:17:40 51°28.122 2°21.063 260.8 2.2 35 -999
2009-04-27 13:17:50 51°28.127 2°21.068 260.8 2.2 35 -999
2009-04-27 13:18:00 51°28.132 2°21.075 269.1 2.39 33 -999
2009-04-27 13:18:10 51°28.138 2°21.081 269.1 2.39 33 -999
2009-04-27 13:18:20 51°28.143 2°21.088 269.1 2.39 33 -999
2009-04-27 13:18:30 51°28.149 2°21.094 269.1 2.39 33 -999
2009-04-27 13:18:40 51°28.154 2°21.102 269.1 2.39 33 -999
2009-04-27 13:18:50 51°28.159 2°21.109 269.1 2.39 33 -999
2009-04-27 13:19:00 51°28.164 2°21.116 283.6 2.7 37 -999
2009-04-27 13:19:10 51°28.169 2°21.123 283.6 2.7 37 -999
2009-04-27 13:19:20 51°28.175 2°21.131 283.6 2.7 37 -999
2009-04-27 13:19:30 51°28.18 2°21.138 283.6 2.7 37 -999
2009-04-27 13:19:40 51°28.185 2°21.146 283.6 2.7 37 -999
2009-04-27 13:19:50 51°28.19 2°21.154 283.6 2.7 37 -999
2009-04-27 13:20:00 51°28.195 2°21.162 292.6 2.39 47 -999
2009-04-27 13:20:10 51°28.2 2°21.169 292.6 2.39 47 -999
2009-04-27 13:20:20 51°28.205 2°21.177 292.6 2.39 47 -999
2009-04-27 13:20:30 51°28.209 2°21.185 292.6 2.39 47 -999
2009-04-27 13:20:40 51°28.215 2°21.192 292.6 2.39 47 -999
2009-04-27 13:20:50 51°28.219 2°21.2 292.6 2.39 47 -999
2009-04-27 13:21:00 51°28.224 2°21.207 300 2.39 47 -999
2009-04-27 13:21:10 51°28.229 2°21.215 300 2.39 47 -999
2009-04-27 13:21:20 51°28.234 2°21.223 300 2.39 47 -999
2009-04-27 13:21:30 51°28.239 2°21.231 300 2.39 47 -999
2009-04-27 13:21:40 51°28.244 2°21.238 300 2.39 47 -999
2009-04-27 13:21:50 51°28.249 2°21.246 300 2.39 47 -999
2009-04-27 13:22:00 51°28.254 2°21.254 303.8 2.6 44 -999
2009-04-27 13:22:10 51°28.26 2°21.261 303.8 2.6 44 -999
2009-04-27 13:22:20 51°28.265 2°21.269 303.8 2.6 44 -999
2009-04-27 13:22:30 51°28.27 2°21.276 303.8 2.6 44 -999
2009-04-27 13:22:40 51°28.275 2°21.283 303.8 2.6 44 -999
2009-04-27 13:22:50 51°28.28 2°21.29 303.8 2.6 44 -999
2009-04-27 13:23:00 51°28.285 2°21.297 308.1 2.29 43 -999
2009-04-27 13:23:10 51°28.29 2°21.304 308.1 2.29 43 -999
2009-04-27 13:23:20 51°28.295 2°21.311 308.1 2.29 43 -999
2009-04-27 13:23:30 51°28.3 2°21.318 308.1 2.29 43 -999
2009-04-27 13:23:40 51°28.305 2°21.325 308.1 2.29 43 -999
2009-04-27 13:23:50 51°28.31 2°21.333 308.1 2.29 43 -999
2009-04-27 13:24:00 51°28.315 2°21.34 299.6 2.5 40 -999
2009-04-27 13:24:10 51°28.321 2°21.348 299.6 2.5 40 -999
2009-04-27 13:24:20 51°28.326 2°21.355 299.6 2.5 40 -999
2009-04-27 13:24:30 51°28.331 2°21.363 299.6 2.5 40 -999
2009-04-27 13:24:40 51°28.336 2°21.37 299.6 2.5 40 -999
2009-04-27 13:24:50 51°28.34 2°21.375 299.6 2.5 40 -999
2009-04-27 13:25:00 51°28.346 2°21.378 291.8 1.89 15 -999
2009-04-27 13:25:10 51°28.352 2°21.379 291.8 1.89 15 -999
2009-04-27 13:25:20 51°28.357 2°21.377 291.8 1.89 15 -999
2009-04-27 13:25:30 51°28.361 2°21.372 291.8 1.89 15 -999
2009-04-27 13:25:40 51°28.363 2°21.366 291.8 1.89 15 -999
2009-04-27 13:25:50 51°28.364 2°21.36 291.8 1.89 15 -999
2009-04-27 13:26:00 51°28.362 2°21.355 237.6 1.3 238 -999
2009-04-27 13:26:10 51°28.359 2°21.353 237.6 1.3 238 -999
2009-04-27 13:26:20 51°28.353 2°21.353 237.6 1.3 238 -999
2009-04-27 13:26:30 51°28.345 2°21.355 237.6 1.3 238 -999
2009-04-27 13:26:40 51°28.335 2°21.358 237.6 1.3 238 -999
2009-04-27 13:26:50 51°28.324 2°21.363 237.6 1.3 238 -999
2009-04-27 13:27:00 51°28.312 2°21.369 184 4.4 167 -999
2009-04-27 13:27:10 51°28.299 2°21.372 184 4.4 167 -999
2009-04-27 13:27:20 51°28.285 2°21.374 184 4.4 167 -999
2009-04-27 13:27:30 51°28.271 2°21.373 184 4.4 167 -999
2009-04-27 13:27:40 51°28.257 2°21.367 184 4.4 167 -999
2009-04-27 13:27:50 51°28.245 2°21.359 184 4.4 167 -999
2009-04-27 13:28:00 51°28.232 2°21.348 210 5.5 207 -999
2009-04-27 13:28:10 51°28.217 2°21.335 210 5.5 207 -999
2009-04-27 13:28:20 51°28.205 2°21.324 210 5.5 207 -999
2009-04-27 13:28:30 51°28.193 2°21.313 210 5.5 207 -999
2009-04-27 13:28:40 51°28.181 2°21.302 210 5.5 207 -999
2009-04-27 13:28:50 51°28.17 2°21.29 210 5.5 207 -999
2009-04-27 13:29:00 51°28.16 2°21.278 217.6 4.59 214 -999
2009-04-27 13:29:10 51°28.149 2°21.267 217.6 4.59 214 -999
2009-04-27 13:29:20 51°28.14 2°21.257 217.6 4.59 214 -999
2009-04-27 13:29:30 51°28.13 2°21.247 217.6 4.59 214 -999
2009-04-27 13:29:40 51°28.119 2°21.236 217.6 4.59 214 -999
2009-04-27 13:29:50 51°28.11 2°21.227 217.6 4.59 214 -999
2009-04-27 13:30:00 51°28.101 2°21.219 216 3.7 210 -999
2009-04-27 13:30:10 51°28.092 2°21.211 216 3.7 210 -999
2009-04-27 13:30:20 51°28.084 2°21.204 216 3.7 210 -999
2009-04-27 13:30:30 51°28.078 2°21.198 216 3.7 210 -999
2009-04-27 13:30:40 51°28.072 2°21.191 216 3.7 210 -999
2009-04-27 13:30:50 51°28.067 2°21.186 216 3.7 210 -999
2009-04-27 13:31:00 51°28.064 2°21.179 224.8 2 228 -999
2009-04-27 13:31:10 51°28.06 2°21.172 224.8 2 228 -999
2009-04-27 13:31:20 51°28.058 2°21.164 224.8 2 228 -999
2009-04-27 13:31:30 51°28.058 2°21.159 224.8 2 228 -999
2009-04-27 13:31:40 51°28.059 2°21.155 224.8 2 228 -999
2009-04-27 13:31:50 51°28.06 2°21.15 224.8 2 228 -999
2009-04-27 13:32:00 51°28.061 2°21.145 238.5 1.19 281 -999
2009-04-27 13:32:10 51°28.061 2°21.139 238.5 1.19 281 -999
2009-04-27 13:32:20 51°28.06 2°21.133 238.5 1.19 281 -999
2009-04-27 13:32:30 51°28.059 2°21.127 238.5 1.19 281 -999
2009-04-27 13:32:40 51°28.058 2°21.121 238.5 1.19 281 -999
2009-04-27 13:32:50 51°28.057 2°21.114 238.5 1.19 281 -999
2009-04-27 13:33:00 51°28.055 2°21.107 231.9 1.89 242 -999
2009-04-27 13:33:10 51°28.05 2°21.097 231.9 1.89 242 -999
2009-04-27 13:33:20 51°28.044 2°21.083 231.9 1.89 242 -999
2009-04-27 13:33:30 51°28.036 2°21.067 231.9 1.89 242 -999
2009-04-27 13:33:40 51°28.028 2°21.05 231.9 1.89 242 -999
2009-04-27 13:33:50 51°28.022 2°21.033 231.9 1.89 242 -999
2009-04-27 13:34:00 51°28.017 2°21.021 232 3 238 -999
2009-04-27 13:34:10 51°28.013 2°21.012 232 3 238 -999
2009-04-27 13:34:20 51°28.013 2°21.008 232 3 238 -999
2009-04-27 13:34:30 51°28.013 2°21.006 232 3 238 -999
2009-04-27 13:34:40 51°28.013 2°21.006 232 3 238 -999
2009-04-27 13:34:50 51°28.014 2°21.006 232 3 238 -999
2009-04-27 13:35:00 51°28.015 2°21.007 221.9 0.9 33 -999
2009-04-27 13:35:10 51°28.017 2°21.009 221.9 0.9 33 -999
2009-04-27 13:35:20 51°28.02 2°21.012 221.9 0.9 33 -999
2009-04-27 13:35:30 51°28.023 2°21.014 221.9 0.9 33 -999
2009-04-27 13:35:40 51°28.026 2°21.018 221.9 0.9 33 -999
2009-04-27 13:35:50 51°28.03 2°21.022 221.9 0.9 33 -999
2009-04-27 13:36:00 51°28.034 2°21.026 223.5 1.8 35 -999
2009-04-27 13:36:10 51°28.038 2°21.03 223.5 1.8 35 -999
2009-04-27 13:36:20 51°28.042 2°21.035 223.5 1.8 35 -999
2009-04-27 13:36:30 51°28.047 2°21.039 223.5 1.8 35 -999
2009-04-27 13:36:40 51°28.052 2°21.045 223.5 1.8 35 -999
2009-04-27 13:36:50 51°28.057 2°21.05 223.5 1.8 35 -999
2009-04-27 13:37:00 51°28.062 2°21.056 241 2.1 35 -999
2009-04-27 13:37:10 51°28.067 2°21.061 241 2.1 35 -999
2009-04-27 13:37:20 51°28.072 2°21.067 241 2.1 35 -999
2009-04-27 13:37:30 51°28.078 2°21.073 241 2.1 35 -999
2009-04-27 13:37:40 51°28.083 2°21.08 241 2.1 35 -999
2009-04-27 13:37:50 51°28.088 2°21.086 241 2.1 35 -999
2009-04-27 13:38:00 51°28.094 2°21.093 264.1 2.39 40 -999
2009-04-27 13:38:10 51°28.1 2°21.1 264.1 2.39 40 -999
2009-04-27 13:38:20 51°28.105 2°21.107 264.1 2.39 40 -999
2009-04-27 13:38:30 51°28.11 2°21.114 264.1 2.39 40 -999
2009-04-27 13:38:40 51°28.115 2°21.12 264.1 2.39 40 -999
2009-04-27 13:38:50 51°28.12 2°21.127 264.1 2.39 40 -999
2009-04-27 13:39:00 51°28.125 2°21.134 285.5 2.5 43 -999
2009-04-27 13:39:10 51°28.13 2°21.143 285.5 2.5 43 -999
2009-04-27 13:39:20 51°28.135 2°21.151 285.5 2.5 43 -999
2009-04-27 13:39:30 51°28.14 2°21.159 285.5 2.5 43 -999
2009-04-27 13:39:40 51°28.144 2°21.167 285.5 2.5 43 -999
2009-04-27 13:39:50 51°28.149 2°21.174 285.5 2.5 43 -999
2009-04-27 13:40:00 51°28.154 2°21.182 302 2.29 43 -999
2009-04-27 13:40:10 51°28.159 2°21.19 302 2.29 43 -999
2009-04-27 13:40:20 51°28.164 2°21.197 302 2.29 43 -999
2009-04-27 13:40:30 51°28.169 2°21.204 302 2.29 43 -999
2009-04-27 13:40:40 51°28.175 2°21.21 302 2.29 43 -999
2009-04-27 13:40:50 51°28.18 2°21.217 302 2.29 43 -999
2009-04-27 13:41:00 51°28.185 2°21.224 313.6 2.39 39 -999
2009-04-27 13:41:10 51°28.19 2°21.23 313.6 2.39 39 -999
2009-04-27 13:41:20 51°28.196 2°21.236 313.6 2.39 39 -999
2009-04-27 13:41:30 51°28.201 2°21.242 313.6 2.39 39 -999
2009-04-27 13:41:40 51°28.207 2°21.247 313.6 2.39 39 -999
2009-04-27 13:41:50 51°28.212 2°21.253 313.6 2.39 39 -999
2009-04-27 13:42:00 51°28.218 2°21.258 316.5 2.29 29 -999
2009-04-27 13:42:10 51°28.223 2°21.263 316.5 2.29 29 -999
2009-04-27 13:42:20 51°28.229 2°21.268 316.5 2.29 29 -999
2009-04-27 13:42:30 51°28.235 2°21.273 316.5 2.29 29 -999
2009-04-27 13:42:40 51°28.241 2°21.278 316.5 2.29 29 -999
2009-04-27 13:42:50 51°28.247 2°21.282 316.5 2.29 29 -999
2009-04-27 13:43:00 51°28.253 2°21.287 314.1 2.39 27 -999
2009-04-27 13:43:10 51°28.258 2°21.292 314.1 2.39 27 -999